Time;durP1;ratioP1;P1;durP2;ratioP2;P2;SDS_P1;SDS_P2;PMS_P1;PMS_P2;Temp;Humidity;BMP_temperature;BMP_pressure;BME280_temperature;BME280_humidity;BME280_pressure;Samples;Min_cycle;Max_cycle;Signal;HPM_P1;HPM_P2
2023/10/30 00:00:08;;;;;;;4.47;1.30;;;15.40;72.30;;;;;;4896730;29;20464;-91
2023/10/30 00:02:39;;;;;;;7.07;1.27;;;15.40;72.30;;;;;;4897868;29;20041;-90
2023/10/30 00:05:07;;;;;;;8.05;1.70;;;15.40;72.40;;;;;;4882231;29;20513;-91
2023/10/30 00:07:34;;;;;;;8.13;1.48;;;15.40;72.40;;;;;;4882107;29;20087;-90
2023/10/30 00:10:02;;;;;;;8.32;1.70;;;15.50;72.30;;;;;;4882419;29;20060;-90
2023/10/30 00:12:31;;;;;;;9.40;1.63;;;15.50;72.10;;;;;;4897358;29;20499;-89
2023/10/30 00:15:03;;;;;;;7.13;1.33;;;15.50;72.10;;;;;;4881941;29;20049;-90
2023/10/30 00:17:30;;;;;;;6.28;1.20;;;15.50;72.10;;;;;;4881696;29;20105;-90
2023/10/30 00:19:59;;;;;;;6.80;1.45;;;15.50;72.00;;;;;;4897645;29;20522;-90
2023/10/30 00:22:26;;;;;;;4.20;0.90;;;15.50;71.80;;;;;;4881700;29;20080;-90
2023/10/30 00:24:53;;;;;;;8.43;1.67;;;15.50;71.70;;;;;;4881789;29;20045;-89
2023/10/30 00:27:21;;;;;;;5.53;1.07;;;15.50;71.70;;;;;;4881591;29;20049;-90
2023/10/30 00:29:49;;;;;;;4.68;1.05;;;15.50;71.70;;;;;;4881631;29;20049;-89
2023/10/30 00:32:16;;;;;;;6.32;0.80;;;15.50;71.80;;;;;;4881589;29;20121;-90
2023/10/30 00:34:43;;;;;;;4.57;0.95;;;15.60;71.60;;;;;;4897020;29;20488;-91
2023/10/30 00:37:12;;;;;;;5.03;0.75;;;15.60;71.80;;;;;;4896869;29;20087;-90
2023/10/30 00:39:39;;;;;;;3.40;0.73;;;15.50;71.80;;;;;;4897346;29;20135;-90
2023/10/30 00:42:06;;;;;;;4.38;0.70;;;15.50;71.90;;;;;;4897935;29;20105;-90
2023/10/30 00:44:33;;;;;;;6.00;0.85;;;15.50;72.00;;;;;;4897033;29;20245;-90
2023/10/30 00:47:00;;;;;;;2.75;0.60;;;15.50;72.10;;;;;;4897390;29;20089;-90
2023/10/30 00:49:28;;;;;;;8.20;0.80;;;15.50;72.20;;;;;;4896585;29;20080;-91
2023/10/30 00:51:55;;;;;;;3.57;0.60;;;15.40;72.20;;;;;;4896737;29;20052;-92
2023/10/30 00:54:22;;;;;;;4.00;0.70;;;15.40;72.40;;;;;;4881537;29;20068;-90
2023/10/30 00:56:49;;;;;;;6.93;0.70;;;15.40;72.40;;;;;;4881414;29;20069;-91
2023/10/30 00:59:16;;;;;;;4.03;0.70;;;15.40;72.40;;;;;;4897224;29;20101;-91
2023/10/30 01:01:43;;;;;;;5.38;0.65;;;15.40;72.60;;;;;;4881456;29;20480;-91
2023/10/30 01:04:10;;;;;;;5.03;0.63;;;15.30;72.80;;;;;;4896704;29;20049;-90
2023/10/30 01:06:38;;;;;;;3.78;0.75;;;15.40;72.90;;;;;;4880963;29;20133;-90
2023/10/30 01:09:05;;;;;;;5.40;1.02;;;15.30;72.80;;;;;;4896356;29;20083;-91
2023/10/30 01:11:32;;;;;;;2.85;0.60;;;15.40;72.70;;;;;;4880750;29;20083;-89
2023/10/30 01:13:59;;;;;;;4.57;0.90;;;15.40;72.70;;;;;;4896948;29;20048;-92
2023/10/30 01:16:28;;;;;;;2.80;0.67;;;15.30;72.80;;;;;;4881097;29;20048;-91
2023/10/30 01:18:55;;;;;;;6.10;0.68;;;15.30;72.90;;;;;;4896505;29;20092;-91
2023/10/30 01:21:22;;;;;;;3.65;0.80;;;15.30;72.80;;;;;;4896179;29;20045;-90
2023/10/30 01:23:49;;;;;;;3.95;0.80;;;15.30;73.00;;;;;;4896482;29;20045;-91
2023/10/30 01:26:17;;;;;;;3.05;0.57;;;15.40;73.10;;;;;;4880951;29;20063;-90
2023/10/30 01:28:44;;;;;;;3.33;0.60;;;15.30;73.10;;;;;;4880882;29;20091;-90
2023/10/30 01:31:11;;;;;;;2.78;0.60;;;15.30;73.10;;;;;;4880551;29;20073;-90
2023/10/30 01:33:38;;;;;;;2.47;0.65;;;15.30;73.10;;;;;;4864907;29;20512;-89
2023/10/30 01:36:06;;;;;;;2.78;0.60;;;15.40;73.10;;;;;;4864991;29;20572;-90
2023/10/30 01:38:33;;;;;;;5.10;1.00;;;15.40;73.10;;;;;;4846635;29;20512;-91
2023/10/30 01:41:00;;;;;;;5.23;0.70;;;15.40;73.10;;;;;;4862626;29;20424;-90
2023/10/30 01:43:31;;;;;;;4.82;1.10;;;15.40;73.10;;;;;;4861613;29;20052;-91
2023/10/30 01:45:59;;;;;;;2.45;0.63;;;15.40;73.00;;;;;;4862496;29;20053;-91
2023/10/30 01:48:29;;;;;;;5.28;1.25;;;15.40;73.00;;;;;;4846518;29;20059;-89
2023/10/30 01:50:58;;;;;;;3.17;0.60;;;15.40;73.10;;;;;;4861641;29;20057;-89
2023/10/30 01:53:31;;;;;;;3.07;0.60;;;15.40;73.20;;;;;;4861808;29;20078;-90
2023/10/30 01:56:01;;;;;;;3.30;0.60;;;15.40;73.20;;;;;;4861294;29;20060;-89
2023/10/30 01:58:29;;;;;;;3.80;0.90;;;15.40;73.30;;;;;;4868814;29;20053;-89
2023/10/30 02:08:04;;;;;;;6.70;0.83;;;15.30;73.50;;;;;;4866214;29;20105;-85
2023/10/30 02:10:32;;;;;;;5.45;1.30;;;15.30;73.70;;;;;;4845408;29;20053;-85
2023/10/30 02:12:59;;;;;;;6.00;0.73;;;15.30;73.60;;;;;;4858530;29;20052;-85
2023/10/30 02:15:27;;;;;;;4.40;0.95;;;15.30;73.70;;;;;;4851783;29;20049;-85
2023/10/30 02:17:54;;;;;;;4.57;0.77;;;15.30;73.60;;;;;;4874524;29;20056;-85
2023/10/30 02:20:21;;;;;;;2.90;0.50;;;15.30;73.70;;;;;;4873147;29;20077;-85
2023/10/30 02:22:48;;;;;;;3.83;0.60;;;15.40;73.50;;;;;;4854586;29;20056;-85
2023/10/30 02:25:19;;;;;;;3.10;0.93;;;15.30;73.50;;;;;;4866478;29;20033;-85
2023/10/30 02:27:46;;;;;;;3.90;0.70;;;15.30;73.60;;;;;;4854263;29;20045;-85
2023/10/30 02:30:13;;;;;;;7.07;0.77;;;15.40;73.70;;;;;;4855718;29;20041;-85
2023/10/30 02:32:42;;;;;;;5.67;0.80;;;15.40;73.70;;;;;;4868964;29;20121;-85
2023/10/30 02:35:14;;;;;;;3.65;0.90;;;15.40;73.50;;;;;;4881899;29;20517;-85
2023/10/30 02:37:42;;;;;;;6.65;0.73;;;15.30;73.60;;;;;;4870326;29;20522;-85
2023/10/30 02:40:09;;;;;;;5.30;0.90;;;15.30;73.70;;;;;;4875429;29;20547;-84
2023/10/30 02:42:37;;;;;;;2.95;0.60;;;15.30;73.90;;;;;;4876539;29;20536;-85
2023/10/30 02:45:05;;;;;;;4.83;0.57;;;15.20;74.10;;;;;;4862933;29;20045;-85
2023/10/30 02:47:32;;;;;;;5.05;0.90;;;15.20;74.30;;;;;;4870544;29;20506;-85
2023/10/30 02:50:01;;;;;;;3.72;0.55;;;15.20;74.20;;;;;;4857186;29;20453;-84
2023/10/30 02:52:32;;;;;;;3.55;0.70;;;15.10;74.40;;;;;;4866847;29;20049;-84
2023/10/30 02:54:59;;;;;;;6.10;1.02;;;15.10;74.50;;;;;;4864465;29;20582;-85
2023/10/30 02:57:26;;;;;;;3.63;0.60;;;15.10;74.70;;;;;;4854161;29;20047;-85
2023/10/30 02:59:53;;;;;;;4.68;1.20;;;15.00;74.50;;;;;;4858837;29;20072;-85
2023/10/30 03:02:20;;;;;;;3.70;0.80;;;15.10;74.60;;;;;;4848779;29;20042;-84
2023/10/30 03:04:48;;;;;;;4.57;0.63;;;15.10;74.70;;;;;;4860684;29;20084;-84
2023/10/30 03:07:16;;;;;;;6.38;0.68;;;15.10;74.60;;;;;;4872226;29;20045;-84
2023/10/30 03:09:43;;;;;;;4.53;0.87;;;15.10;74.60;;;;;;4854950;29;20569;-85
2023/10/30 03:12:11;;;;;;;2.67;0.63;;;15.10;74.40;;;;;;4850287;29;20136;-85
2023/10/30 03:14:38;;;;;;;4.80;0.80;;;15.10;74.30;;;;;;4871501;29;20132;-85
2023/10/30 03:17:05;;;;;;;3.92;0.60;;;15.20;74.30;;;;;;4880877;29;20053;-85
2023/10/30 03:19:33;;;;;;;3.42;0.80;;;15.20;74.20;;;;;;4850141;29;20056;-85
2023/10/30 03:22:00;;;;;;;4.10;0.53;;;15.20;74.10;;;;;;4854713;29;20423;-85
2023/10/30 03:24:27;;;;;;;3.92;0.73;;;15.20;74.10;;;;;;4846442;29;20097;-85
2023/10/30 03:26:55;;;;;;;4.07;0.65;;;15.20;73.80;;;;;;4890734;29;20104;-85
2023/10/30 03:29:22;;;;;;;3.33;0.52;;;15.30;73.90;;;;;;4851536;29;20050;-85
2023/10/30 03:31:54;;;;;;;4.47;0.73;;;15.30;73.90;;;;;;4849089;29;20075;-85
2023/10/30 03:34:21;;;;;;;3.43;0.50;;;15.30;73.70;;;;;;4857050;29;21241;-85
2023/10/30 03:36:49;;;;;;;9.77;0.98;;;15.30;73.60;;;;;;4867100;29;20474;-85
2023/10/30 03:39:16;;;;;;;8.13;0.70;;;15.30;73.70;;;;;;4853981;29;20154;-85
2023/10/30 03:41:44;;;;;;;3.42;0.68;;;15.30;74.00;;;;;;4873192;29;20440;-85
2023/10/30 03:44:11;;;;;;;3.97;0.60;;;15.30;74.00;;;;;;4866180;29;20155;-85
2023/10/30 03:46:39;;;;;;;5.67;0.80;;;15.30;74.10;;;;;;4881001;29;20051;-85
2023/10/30 03:49:07;;;;;;;4.18;0.70;;;15.20;74.10;;;;;;4886768;29;20473;-85
2023/10/30 03:51:34;;;;;;;6.50;1.25;;;15.20;74.20;;;;;;4870965;29;20465;-85
2023/10/30 03:54:01;;;;;;;4.82;0.70;;;15.20;74.10;;;;;;4893948;29;20109;-85
2023/10/30 03:56:40;;;;;;;5.40;0.63;;;15.30;74.00;;;;;;4885062;29;20043;-85
2023/10/30 03:59:07;;;;;;;7.83;0.80;;;15.30;74.20;;;;;;4894478;29;20051;-85
2023/10/30 04:01:35;;;;;;;5.35;0.60;;;15.30;74.20;;;;;;4862171;29;20502;-85
2023/10/30 04:04:04;;;;;;;6.95;0.88;;;15.20;74.20;;;;;;4881901;29;20048;-85
2023/10/30 04:06:32;;;;;;;4.75;0.90;;;15.30;74.10;;;;;;4858880;29;20077;-86
2023/10/30 04:08:59;;;;;;;5.85;0.70;;;15.20;74.00;;;;;;4895116;29;20064;-86
2023/10/30 04:11:26;;;;;;;3.30;1.00;;;15.20;74.30;;;;;;4859684;29;20045;-86
2023/10/30 04:13:53;;;;;;;4.47;0.73;;;15.20;74.30;;;;;;4891343;29;20056;-87
2023/10/30 04:16:20;;;;;;;5.90;1.42;;;15.10;74.50;;;;;;4893027;29;20045;-88
2023/10/30 04:18:47;;;;;;;6.25;0.95;;;15.20;74.50;;;;;;4869306;29;20072;-86
2023/10/30 04:21:14;;;;;;;6.80;0.90;;;15.20;74.60;;;;;;4888719;29;20055;-86
2023/10/30 04:23:44;;;;;;;5.30;0.80;;;15.20;74.50;;;;;;4897369;29;20582;-86
2023/10/30 04:26:11;;;;;;;4.65;0.80;;;15.10;74.50;;;;;;4888291;29;20104;-86
2023/10/30 04:28:38;;;;;;;3.63;0.73;;;15.10;74.70;;;;;;4874610;29;20173;-86
2023/10/30 04:31:09;;;;;;;5.03;0.82;;;15.10;74.70;;;;;;4849647;29;20510;-86
2023/10/30 04:33:36;;;;;;;6.00;1.10;;;15.10;74.70;;;;;;4870662;29;20052;-86
2023/10/30 04:36:04;;;;;;;4.93;0.93;;;15.10;74.70;;;;;;4874544;29;20125;-86
2023/10/30 04:38:32;;;;;;;4.63;0.70;;;15.00;74.80;;;;;;4871824;29;20407;-86
2023/10/30 04:41:03;;;;;;;6.20;0.90;;;15.10;74.80;;;;;;4885393;29;20093;-86
2023/10/30 04:43:34;;;;;;;5.93;0.75;;;15.00;74.80;;;;;;4864612;29;20384;-86
2023/10/30 04:46:01;;;;;;;5.18;0.80;;;15.10;74.90;;;;;;4876138;29;20526;-86
2023/10/30 04:48:31;;;;;;;5.20;0.80;;;15.10;74.90;;;;;;4875203;29;20045;-86
2023/10/30 04:50:59;;;;;;;5.25;0.85;;;15.00;75.00;;;;;;4864184;29;20416;-86
2023/10/30 04:53:29;;;;;;;5.78;1.00;;;15.00;75.10;;;;;;4872042;29;20037;-86
2023/10/30 04:55:57;;;;;;;3.20;0.73;;;15.00;75.20;;;;;;4889694;29;20052;-85
2023/10/30 04:58:23;;;;;;;5.60;0.90;;;15.00;75.10;;;;;;4856095;29;20041;-87
2023/10/30 05:00:50;;;;;;;4.80;0.73;;;15.00;75.20;;;;;;4871086;29;20045;-87
2023/10/30 05:03:17;;;;;;;4.28;0.80;;;15.00;75.20;;;;;;4860653;29;20499;-86
2023/10/30 05:05:44;;;;;;;6.50;1.10;;;15.00;75.20;;;;;;4859839;29;20081;-86
2023/10/30 05:08:11;;;;;;;6.32;1.30;;;15.00;75.30;;;;;;4883097;29;20053;-86
2023/10/30 05:10:38;;;;;;;5.70;0.90;;;15.00;75.30;;;;;;4851406;29;20131;-87
2023/10/30 05:13:05;;;;;;;5.43;0.80;;;15.00;75.20;;;;;;4866701;29;20052;-87
2023/10/30 05:15:34;;;;;;;5.13;0.90;;;15.00;75.10;;;;;;4888086;29;20053;-86
2023/10/30 05:18:02;;;;;;;5.38;1.33;;;15.00;74.90;;;;;;4848606;29;20525;-86
2023/10/30 05:20:29;;;;;;;5.20;0.90;;;15.10;74.80;;;;;;4866008;29;20044;-86
2023/10/30 05:22:56;;;;;;;6.50;1.20;;;15.00;74.90;;;;;;4875793;29;20049;-87
2023/10/30 05:25:23;;;;;;;5.50;0.90;;;15.10;74.90;;;;;;4867891;29;20426;-86
2023/10/30 05:28:05;;;;;;;5.90;1.23;;;15.10;74.60;;;;;;4871436;29;20060;-86
2023/10/30 05:30:33;;;;;;;4.20;0.80;;;15.20;74.40;;;;;;4873104;29;20415;-87
2023/10/30 05:33:01;;;;;;;7.38;0.90;;;15.20;74.50;;;;;;4875856;29;20139;-86
2023/10/30 05:35:29;;;;;;;7.60;1.80;;;15.20;74.10;;;;;;4865917;29;20049;-86
2023/10/30 05:37:56;;;;;;;6.47;1.60;;;15.20;74.20;;;;;;4871583;29;20060;-86
2023/10/30 05:40:23;;;;;;;5.03;1.10;;;15.20;74.20;;;;;;4871342;29;20049;-86
2023/10/30 05:42:50;;;;;;;7.10;2.20;;;15.20;74.40;;;;;;4871449;29;20080;-86
2023/10/30 05:45:17;;;;;;;11.52;3.13;;;15.00;74.60;;;;;;4876482;29;20044;-86
2023/10/30 05:47:44;;;;;;;9.63;1.92;;;15.00;74.90;;;;;;4854625;29;20071;-86
2023/10/30 05:50:11;;;;;;;8.17;1.60;;;15.00;75.00;;;;;;4858584;29;20080;-86
2023/10/30 05:52:38;;;;;;;6.57;1.23;;;14.90;75.20;;;;;;4868193;29;20070;-86
2023/10/30 05:55:07;;;;;;;8.50;2.15;;;15.00;75.10;;;;;;4886104;29;20048;-86
2023/10/30 05:57:35;;;;;;;7.60;1.67;;;14.90;75.10;;;;;;4870069;29;20491;-86
2023/10/30 06:00:03;;;;;;;9.73;2.70;;;14.90;75.30;;;;;;4858674;29;20550;-86
2023/10/30 06:02:30;;;;;;;6.70;1.80;;;14.90;75.20;;;;;;4888986;29;20044;-86
2023/10/30 06:04:57;;;;;;;7.57;1.05;;;14.90;75.20;;;;;;4863526;29;20049;-86
2023/10/30 06:07:24;;;;;;;6.32;1.30;;;14.90;75.10;;;;;;4856996;29;20049;-86
2023/10/30 06:09:51;;;;;;;5.22;1.30;;;14.90;75.30;;;;;;4861058;29;20100;-85
2023/10/30 06:12:18;;;;;;;4.70;0.75;;;14.90;75.30;;;;;;4850687;29;20094;-85
2023/10/30 06:14:45;;;;;;;5.83;0.90;;;14.90;75.30;;;;;;4844681;29;20049;-85
2023/10/30 06:17:12;;;;;;;4.22;0.90;;;14.80;75.60;;;;;;4859775;29;20045;-85
2023/10/30 06:19:40;;;;;;;6.22;1.17;;;14.80;75.60;;;;;;4866870;29;20040;-85
2023/10/30 06:22:07;;;;;;;5.65;1.10;;;14.80;75.80;;;;;;4863384;29;20063;-85
2023/10/30 06:24:34;;;;;;;2.78;0.82;;;14.80;75.80;;;;;;4866034;29;20040;-86
2023/10/30 06:27:02;;;;;;;6.93;0.97;;;14.80;75.90;;;;;;4851318;29;20056;-85
2023/10/30 06:29:29;;;;;;;4.28;0.90;;;14.80;76.00;;;;;;4862963;29;20045;-86
2023/10/30 06:31:56;;;;;;;8.07;1.27;;;14.80;75.90;;;;;;4879944;29;20057;-85
2023/10/30 06:34:23;;;;;;;7.05;1.20;;;14.90;75.70;;;;;;4881479;29;20455;-85
2023/10/30 06:36:50;;;;;;;8.73;2.83;;;14.90;75.60;;;;;;4845703;29;20525;-85
2023/10/30 06:39:20;;;;;;;6.87;1.20;;;14.90;75.60;;;;;;4862683;29;20053;-85
2023/10/30 06:41:55;;;;;;;7.03;0.90;;;15.00;75.30;;;;;;4847475;29;20411;-87
2023/10/30 06:44:25;;;;;;;5.85;1.30;;;15.00;75.10;;;;;;4855620;29;20044;-87
2023/10/30 06:46:52;;;;;;;6.40;1.83;;;15.00;75.00;;;;;;4870745;29;20426;-86
2023/10/30 06:49:24;;;;;;;5.00;1.10;;;15.10;74.90;;;;;;4859697;29;20457;-85
2023/10/30 06:51:51;;;;;;;6.13;0.90;;;15.10;74.70;;;;;;4859495;29;20053;-86
2023/10/30 06:54:18;;;;;;;4.10;0.80;;;15.20;74.70;;;;;;4859793;29;20105;-85
2023/10/30 06:56:45;;;;;;;4.35;0.80;;;15.20;74.60;;;;;;4844132;29;20250;-85
2023/10/30 06:59:14;;;;;;;6.07;0.90;;;15.20;74.60;;;;;;4862744;29;20045;-85
2023/10/30 07:01:45;;;;;;;4.13;0.75;;;15.20;74.60;;;;;;4862686;29;20045;-87
2023/10/30 07:04:13;;;;;;;3.57;0.80;;;15.30;74.20;;;;;;4868552;29;20055;-85
2023/10/30 07:06:41;;;;;;;6.10;0.90;;;15.30;74.30;;;;;;4857651;29;20046;-85
2023/10/30 07:09:10;;;;;;;4.53;1.00;;;15.30;74.30;;;;;;4871238;29;20078;-85
2023/10/30 07:11:39;;;;;;;7.38;1.00;;;15.30;74.30;;;;;;4876436;29;20523;-88
2023/10/30 07:14:08;;;;;;;3.70;0.60;;;15.40;74.30;;;;;;4861026;29;20050;-86
2023/10/30 07:16:35;;;;;;;3.10;0.80;;;15.50;73.90;;;;;;4874279;29;20041;-86
2023/10/30 07:19:11;;;;;;;6.80;1.00;;;15.40;74.20;;;;;;4867357;29;22060;-86
2023/10/30 07:21:38;;;;;;;4.95;1.00;;;15.40;74.20;;;;;;4881704;29;20555;-86
2023/10/30 07:24:09;;;;;;;6.07;1.10;;;15.50;74.20;;;;;;4866481;29;20080;-85
2023/10/30 07:26:36;;;;;;;5.30;0.93;;;15.50;73.60;;;;;;4881476;29;20052;-86
2023/10/30 07:29:03;;;;;;;7.17;1.23;;;15.50;73.70;;;;;;4881463;29;20064;-85
2023/10/30 07:31:30;;;;;;;5.88;1.27;;;15.50;73.30;;;;;;4866042;29;20502;-86
2023/10/30 07:33:58;;;;;;;8.50;1.92;;;15.50;73.60;;;;;;4881332;29;20049;-86
2023/10/30 07:36:26;;;;;;;12.00;1.70;;;15.60;73.60;;;;;;4865675;29;20049;-86
2023/10/30 07:38:53;;;;;;;5.85;1.67;;;15.60;73.40;;;;;;4881188;29;20441;-86
2023/10/30 07:41:20;;;;;;;6.50;1.60;;;15.60;73.30;;;;;;4881389;29;20041;-85
2023/10/30 07:43:47;;;;;;;6.35;1.33;;;15.60;73.50;;;;;;4865793;29;20052;-85
2023/10/30 07:46:14;;;;;;;5.32;1.05;;;15.70;73.50;;;;;;4881136;29;20045;-85
2023/10/30 07:48:42;;;;;;;4.72;1.00;;;15.80;73.50;;;;;;4865721;29;20144;-86
2023/10/30 07:51:09;;;;;;;6.57;1.10;;;15.80;73.40;;;;;;4881082;29;20060;-85
2023/10/30 07:53:36;;;;;;;4.00;1.00;;;15.80;73.10;;;;;;4871242;29;20418;-86
2023/10/30 07:56:03;;;;;;;7.03;1.08;;;15.80;73.00;;;;;;4855235;29;20045;-84
2023/10/30 07:58:31;;;;;;;7.10;1.13;;;15.80;73.00;;;;;;4877343;29;20113;-84
2023/10/30 08:00:58;;;;;;;9.25;1.42;;;15.80;72.90;;;;;;4880716;29;20057;-88
2023/10/30 08:03:25;;;;;;;4.28;0.93;;;15.90;72.80;;;;;;4874098;29;20096;-85
2023/10/30 08:05:53;;;;;;;5.10;1.10;;;15.90;72.70;;;;;;4843723;29;20461;-84
2023/10/30 08:08:21;;;;;;;5.50;1.23;;;15.90;72.60;;;;;;4858780;29;20145;-85
2023/10/30 08:10:48;;;;;;;6.72;1.10;;;15.90;72.50;;;;;;4853654;29;20056;-84
2023/10/30 08:13:16;;;;;;;6.22;1.45;;;15.90;72.20;;;;;;4845991;29;20472;-86
2023/10/30 08:15:43;;;;;;;6.05;1.40;;;16.00;72.30;;;;;;4841263;29;20397;-86
2023/10/30 08:18:10;;;;;;;6.53;1.20;;;16.00;72.60;;;;;;4836107;29;20046;-87
2023/10/30 08:20:37;;;;;;;6.00;1.65;;;16.00;72.50;;;;;;4827673;29;20470;-88
2023/10/30 08:23:04;;;;;;;6.32;1.40;;;16.00;72.70;;;;;;4848344;29;20051;-87
2023/10/30 08:25:31;;;;;;;5.82;1.30;;;16.00;72.20;;;;;;4862597;29;20052;-88
2023/10/30 08:27:59;;;;;;;6.00;1.13;;;16.00;72.50;;;;;;4846901;29;20057;-88
2023/10/30 08:30:27;;;;;;;6.27;1.50;;;16.00;72.50;;;;;;4810392;29;20420;-87
2023/10/30 08:32:54;;;;;;;7.82;1.25;;;16.10;72.60;;;;;;4854547;29;20054;-88
2023/10/30 08:35:22;;;;;;;6.60;1.25;;;16.10;72.50;;;;;;4843839;29;20054;-88
2023/10/30 08:37:49;;;;;;;7.05;1.42;;;16.10;72.00;;;;;;4842044;29;20061;-87
2023/10/30 08:40:17;;;;;;;5.40;1.45;;;16.10;72.50;;;;;;4843357;29;20118;-87
2023/10/30 08:42:44;;;;;;;5.57;1.23;;;16.10;72.20;;;;;;4853423;29;20054;-87
2023/10/30 08:45:11;;;;;;;10.05;1.60;;;16.10;71.90;;;;;;4833920;29;20098;-87
2023/10/30 08:47:38;;;;;;;5.18;1.35;;;16.20;72.60;;;;;;4852778;29;20105;-87
2023/10/30 08:50:08;;;;;;;4.72;1.10;;;16.10;72.10;;;;;;4846413;29;20149;-87
2023/10/30 08:52:35;;;;;;;7.75;1.40;;;16.10;72.10;;;;;;4861837;29;20564;-87
2023/10/30 08:55:04;;;;;;;4.67;1.20;;;16.20;71.90;;;;;;4846391;29;20049;-87
2023/10/30 08:57:31;;;;;;;9.82;1.30;;;16.20;72.20;;;;;;4841127;29;20137;-87
2023/10/30 08:59:58;;;;;;;4.82;1.33;;;16.20;72.40;;;;;;4846256;29;20136;-87
2023/10/30 09:02:25;;;;;;;7.70;1.10;;;16.20;72.60;;;;;;4846242;29;20140;-87
2023/10/30 09:04:52;;;;;;;5.10;1.55;;;16.30;71.70;;;;;;4861397;29;20117;-87
2023/10/30 09:07:20;;;;;;;5.10;1.30;;;16.30;71.40;;;;;;4846063;29;20102;-87
2023/10/30 09:09:47;;;;;;;6.50;1.13;;;16.30;72.10;;;;;;4847365;29;20532;-86
2023/10/30 09:12:14;;;;;;;5.57;1.23;;;16.30;72.00;;;;;;4824635;29;20509;-87
2023/10/30 09:14:41;;;;;;;6.88;1.10;;;16.30;72.50;;;;;;4824737;29;20560;-87
2023/10/30 09:17:09;;;;;;;7.25;1.40;;;16.40;72.10;;;;;;4825466;29;20051;-86
2023/10/30 09:19:36;;;;;;;9.80;1.43;;;16.50;71.70;;;;;;4845676;29;20113;-86
2023/10/30 09:22:04;;;;;;;6.70;1.30;;;16.50;71.50;;;;;;4840322;29;20051;-86
2023/10/30 09:24:31;;;;;;;7.30;1.67;;;16.50;71.80;;;;;;4824370;29;20050;-86
2023/10/30 09:26:58;;;;;;;5.00;1.20;;;16.50;71.20;;;;;;4867258;29;20579;-86
2023/10/30 09:29:25;;;;;;;7.63;1.45;;;16.60;71.30;;;;;;4833753;29;20077;-87
2023/10/30 09:31:53;;;;;;;5.33;1.33;;;16.60;71.20;;;;;;4827615;29;20064;-87
2023/10/30 09:34:20;;;;;;;6.65;1.10;;;16.60;71.40;;;;;;4850693;29;20050;-87
2023/10/30 09:36:48;;;;;;;8.23;1.40;;;16.60;70.80;;;;;;4857378;29;20056;-87
2023/10/30 09:39:16;;;;;;;6.00;1.50;;;16.70;70.90;;;;;;4857755;29;20046;-87
2023/10/30 09:41:45;;;;;;;5.78;1.52;;;16.70;70.70;;;;;;4870497;29;20500;-86
2023/10/30 09:44:13;;;;;;;5.60;1.17;;;16.70;70.50;;;;;;4836717;29;20070;-88
2023/10/30 09:46:40;;;;;;;5.97;1.55;;;16.70;70.90;;;;;;4841829;29;20440;-90
2023/10/30 09:49:10;;;;;;;4.18;1.27;;;16.80;71.20;;;;;;4824157;29;20090;-88
2023/10/30 09:51:38;;;;;;;5.72;1.33;;;16.80;71.10;;;;;;4845764;29;20085;-88
2023/10/30 09:54:06;;;;;;;7.18;1.40;;;16.80;71.20;;;;;;4861385;29;20075;-89
2023/10/30 09:56:34;;;;;;;6.10;1.37;;;16.80;71.00;;;;;;4846106;29;20140;-89
2023/10/30 09:59:01;;;;;;;8.40;1.20;;;16.90;70.30;;;;;;4845642;29;20049;-89
2023/10/30 10:01:30;;;;;;;7.07;1.33;;;16.90;70.80;;;;;;4840627;29;20088;-89
2023/10/30 10:03:57;;;;;;;6.05;1.40;;;17.00;70.60;;;;;;4827296;29;20076;-89
2023/10/30 10:06:25;;;;;;;5.85;1.35;;;17.00;70.20;;;;;;4842482;29;20046;-89
2023/10/30 10:08:52;;;;;;;7.10;1.30;;;17.00;70.40;;;;;;4827504;29;20156;-88
2023/10/30 10:11:22;;;;;;;7.00;1.80;;;17.00;70.20;;;;;;4827475;29;20106;-89
2023/10/30 10:13:50;;;;;;;5.95;1.63;;;17.10;70.70;;;;;;4841940;29;20113;-89
2023/10/30 10:16:31;;;;;;;6.00;1.30;;;17.00;70.30;;;;;;4862781;29;20049;-89
2023/10/30 10:18:58;;;;;;;5.03;1.20;;;17.10;70.20;;;;;;4845546;29;20508;-89
2023/10/30 10:21:26;;;;;;;4.43;1.30;;;17.10;70.60;;;;;;4860820;29;20057;-89
2023/10/30 10:23:53;;;;;;;6.82;1.40;;;17.10;69.90;;;;;;4845577;29;20045;-89
2023/10/30 10:26:29;;;;;;;6.30;1.65;;;17.10;70.10;;;;;;4839806;29;20050;-89
2023/10/30 10:28:58;;;;;;;7.93;1.40;;;17.20;70.30;;;;;;4839160;29;20148;-89
2023/10/30 10:31:25;;;;;;;7.90;1.58;;;17.30;70.30;;;;;;4823997;29;20453;-89
2023/10/30 10:33:53;;;;;;;6.67;1.90;;;17.30;70.30;;;;;;4842656;29;20054;-89
2023/10/30 10:36:20;;;;;;;6.72;1.33;;;17.40;70.10;;;;;;4860670;29;20101;-89
2023/10/30 10:38:59;;;;;;;7.03;1.48;;;17.50;69.80;;;;;;4845378;29;20050;-88
2023/10/30 10:41:27;;;;;;;6.35;1.40;;;17.50;70.10;;;;;;4860540;29;20464;-89
2023/10/30 10:43:55;;;;;;;5.78;1.27;;;17.50;69.40;;;;;;4863145;29;20049;-89
2023/10/30 10:46:24;;;;;;;5.60;1.50;;;17.50;70.10;;;;;;4849183;29;20041;-89
2023/10/30 10:48:51;;;;;;;7.25;1.40;;;17.50;70.40;;;;;;4849186;29;20053;-89
2023/10/30 10:51:30;;;;;;;7.93;1.50;;;17.50;69.30;;;;;;4864259;29;20132;-89
2023/10/30 10:54:10;;;;;;;6.18;1.63;;;17.60;69.50;;;;;;4863159;29;20082;-89
2023/10/30 10:56:39;;;;;;;5.55;1.15;;;17.60;69.50;;;;;;4845892;29;20053;-89
2023/10/30 10:59:11;;;;;;;7.03;1.27;;;17.60;68.90;;;;;;4830408;29;20053;-89
2023/10/30 11:01:40;;;;;;;5.85;1.02;;;17.70;68.60;;;;;;4845695;29;20057;-89
2023/10/30 11:04:11;;;;;;;5.90;1.10;;;17.70;68.10;;;;;;4852556;29;20065;-89
2023/10/30 11:06:46;;;;;;;9.68;2.05;;;17.80;68.00;;;;;;4845491;29;20050;-89
2023/10/30 11:09:26;;;;;;;8.25;1.40;;;17.90;68.40;;;;;;4860934;29;20054;-89
2023/10/30 11:12:30;;;;;;;7.40;1.47;;;18.00;67.50;;;;;;4845568;29;20054;-89
2023/10/30 11:15:25;;;;;;;8.52;1.35;;;18.10;67.20;;;;;;4860734;29;20148;-89
2023/10/30 11:18:21;;;;;;;5.80;1.35;;;18.20;67.60;;;;;;4830440;29;20049;-89
2023/10/30 11:21:08;;;;;;;7.43;1.10;;;18.30;66.40;;;;;;4845487;29;20053;-89
2023/10/30 11:23:44;;;;;;;5.88;1.35;;;18.40;66.10;;;;;;4830204;29;20129;-89
2023/10/30 11:26:38;;;;;;;6.50;0.90;;;18.40;65.60;;;;;;4829984;29;20077;-89
2023/10/30 11:29:09;;;;;;;6.07;1.30;;;18.40;65.80;;;;;;4845237;29;20065;-89
2023/10/30 11:31:56;;;;;;;5.03;1.00;;;18.40;65.70;;;;;;4829654;29;20500;-88
2023/10/30 11:34:34;;;;;;;5.75;1.23;;;18.30;65.40;;;;;;4845131;29;20053;-89
2023/10/30 11:37:12;;;;;;;4.88;0.80;;;18.40;65.90;;;;;;4829879;29;20049;-89
2023/10/30 11:39:41;;;;;;;6.57;1.43;;;18.50;66.20;;;;;;4829527;29;20058;-89
2023/10/30 11:42:26;;;;;;;3.95;0.82;;;18.50;65.20;;;;;;4845269;29;20523;-89
2023/10/30 11:45:24;;;;;;;4.50;1.00;;;18.60;65.40;;;;;;4844948;29;20416;-90
2023/10/30 11:48:05;;;;;;;3.88;0.90;;;18.60;64.90;;;;;;4829531;29;20053;-89
2023/10/30 11:50:36;;;;;;;4.63;0.90;;;18.50;64.90;;;;;;4844500;29;20061;-89
2023/10/30 11:53:08;;;;;;;5.03;1.07;;;18.50;65.20;;;;;;4844848;29;20056;-89
2023/10/30 11:55:37;;;;;;;6.43;0.90;;;18.50;64.90;;;;;;4828744;29;20054;-89
2023/10/30 11:58:05;;;;;;;3.83;0.70;;;18.50;65.20;;;;;;4844421;29;20049;-89
2023/10/30 12:00:33;;;;;;;3.53;0.70;;;18.60;65.60;;;;;;4844920;29;20046;-88
2023/10/30 12:03:00;;;;;;;6.78;0.88;;;18.60;64.80;;;;;;4848048;29;20144;-89
2023/10/30 12:05:27;;;;;;;3.70;0.87;;;18.60;64.70;;;;;;4851180;29;20041;-89
2023/10/30 12:07:55;;;;;;;7.38;1.80;;;18.60;64.70;;;;;;4850898;29;20064;-88
2023/10/30 12:10:22;;;;;;;7.18;1.65;;;18.60;64.40;;;;;;4866138;29;20412;-88
2023/10/30 12:12:50;;;;;;;6.35;1.00;;;18.60;64.60;;;;;;4850661;29;20084;-88
2023/10/30 12:15:17;;;;;;;9.45;1.33;;;18.60;63.90;;;;;;4865821;29;20388;-89
2023/10/30 12:17:44;;;;;;;4.17;0.90;;;18.60;64.30;;;;;;4866015;29;20045;-89
2023/10/30 12:20:11;;;;;;;5.07;0.80;;;18.60;64.40;;;;;;4865708;29;20045;-88
2023/10/30 12:22:41;;;;;;;6.63;1.10;;;18.60;64.30;;;;;;4865869;29;20113;-89
2023/10/30 12:25:15;;;;;;;5.68;1.40;;;18.60;64.60;;;;;;4850564;29;20056;-88
2023/10/30 12:27:42;;;;;;;5.78;1.15;;;18.60;63.70;;;;;;4881071;29;20077;-89
2023/10/30 12:30:15;;;;;;;6.03;1.10;;;18.60;64.10;;;;;;4865711;29;20510;-89
2023/10/30 12:32:51;;;;;;;4.57;0.95;;;18.70;64.20;;;;;;4850455;29;20049;-89
2023/10/30 12:35:19;;;;;;;7.70;1.23;;;18.60;63.40;;;;;;4850346;29;20053;-88
2023/10/30 12:37:46;;;;;;;4.50;0.93;;;18.70;63.50;;;;;;4850369;29;20084;-89
2023/10/30 12:40:13;;;;;;;5.60;1.27;;;18.60;63.40;;;;;;4850281;29;20045;-88
2023/10/30 12:42:46;;;;;;;5.83;1.10;;;18.60;63.20;;;;;;4850080;29;20047;-88
2023/10/30 12:45:15;;;;;;;4.65;1.20;;;18.50;63.80;;;;;;4850056;29;20140;-89
2023/10/30 12:47:47;;;;;;;8.70;1.77;;;18.50;64.70;;;;;;4849896;29;20052;-88
2023/10/30 12:50:15;;;;;;;7.90;1.13;;;18.50;65.10;;;;;;4865411;29;20057;-88
2023/10/30 12:52:42;;;;;;;6.03;1.50;;;18.50;64.00;;;;;;4850016;29;20064;-89
2023/10/30 12:55:11;;;;;;;5.30;1.37;;;18.50;64.10;;;;;;4849952;29;20068;-89
2023/10/30 12:57:39;;;;;;;6.35;1.00;;;18.50;63.90;;;;;;4849756;29;20507;-89
2023/10/30 13:00:08;;;;;;;3.80;0.95;;;18.60;64.30;;;;;;4865067;29;20097;-88